createdAt,value
2018-03-24T00:00:12.104Z,99167.66
2018-03-24T00:01:17.915Z,99173.48
2018-03-24T00:02:24.456Z,99175.41
2018-03-24T00:03:30.214Z,99165.84
2018-03-24T00:04:36.756Z,99167.50
2018-03-24T00:05:42.472Z,99168.34
2018-03-24T00:06:48.184Z,99165.52
2018-03-24T00:07:53.904Z,99163.55
2018-03-24T00:08:59.637Z,99164.43
2018-03-24T00:10:06.150Z,99165.63
2018-03-24T00:11:11.866Z,99164.70
2018-03-24T00:12:17.579Z,99168.66
2018-03-24T00:13:23.312Z,99164.97
2018-03-24T00:14:29.799Z,99155.99
2018-03-24T00:15:35.514Z,99151.94
2018-03-24T00:16:42.135Z,99158.44
2018-03-24T00:17:47.845Z,99153.95
2018-03-24T00:18:53.582Z,99156.50
2018-03-24T00:19:59.432Z,99156.71
2018-03-24T00:21:05.146Z,99155.87
2018-03-24T00:22:10.004Z,99153.30
2018-03-24T00:23:15.715Z,99162.52
2018-03-24T00:24:21.475Z,99156.15
2018-03-24T00:25:27.232Z,99157.20
2018-03-24T00:26:33.051Z,99160.80
2018-03-24T00:27:38.783Z,99153.50
2018-03-24T00:28:45.256Z,99155.13
2018-03-24T00:29:51.040Z,99155.97
2018-03-24T00:30:56.875Z,99155.06
2018-03-24T00:32:02.605Z,99156.48
2018-03-24T00:33:08.372Z,99154.05
2018-03-24T00:34:14.081Z,99151.39
2018-03-24T00:35:19.795Z,99152.72
2018-03-24T00:36:25.548Z,99153.14
2018-03-24T00:37:31.340Z,99151.02
2018-03-24T00:38:37.049Z,99147.07
2018-03-24T00:39:42.844Z,99150.39
2018-03-24T00:40:49.333Z,99153.28
2018-03-24T00:41:55.211Z,99153.06
2018-03-24T00:43:01.113Z,99151.31
2018-03-24T00:44:06.923Z,99150.44
2018-03-24T00:45:12.648Z,99152.22
2018-03-24T00:46:19.120Z,99153.19
2018-03-24T00:47:25.681Z,99155.63
2018-03-24T00:48:32.164Z,99153.84
2018-03-24T00:49:37.870Z,99158.17
2018-03-24T00:50:44.446Z,99157.93
2018-03-24T00:51:50.949Z,99152.08
2018-03-24T00:52:56.696Z,99149.61
2018-03-24T00:54:02.424Z,99153.95
2018-03-24T00:55:08.288Z,99152.20
2018-03-24T00:56:14.023Z,99152.30
2018-03-24T00:57:19.563Z,99149.73
2018-03-24T00:58:25.305Z,99147.25
2018-03-24T00:59:31.027Z,99146.06
2018-03-24T01:00:36.722Z,99147.05
2018-03-24T01:01:42.431Z,99143.55
2018-03-24T01:02:47.609Z,99139.61
2018-03-24T01:03:54.116Z,99144.69
2018-03-24T01:05:00.021Z,99145.95
2018-03-24T01:06:05.750Z,99140.92
2018-03-24T01:07:12.226Z,99141.38
2018-03-24T01:08:17.953Z,99138.17
2018-03-24T01:09:24.469Z,99139.05
2018-03-24T01:10:30.212Z,99142.39
2018-03-24T01:11:35.933Z,99144.24
2018-03-24T01:12:41.662Z,99142.20
2018-03-24T01:13:47.400Z,99144.34
2018-03-24T01:14:53.153Z,99143.00
2018-03-24T01:15:58.866Z,99137.63
2018-03-24T01:17:04.604Z,99141.16
2018-03-24T01:18:11.180Z,99140.14
2018-03-24T01:19:17.144Z,99134.80
2018-03-24T01:20:22.900Z,99135.64
2018-03-24T01:21:28.625Z,99131.52
2018-03-24T01:22:34.342Z,99134.05
2018-03-24T01:23:40.054Z,99134.34
2018-03-24T01:24:46.540Z,99131.94
2018-03-24T01:25:52.277Z,99129.18
2018-03-24T01:26:58.034Z,99133.31
2018-03-24T01:28:03.784Z,99130.32
2018-03-24T01:29:09.488Z,99127.81
2018-03-24T01:30:15.969Z,99123.53
2018-03-24T01:31:21.701Z,99126.19
2018-03-24T01:32:27.404Z,99126.13
2018-03-24T01:33:32.873Z,99125.86
2018-03-24T01:34:38.582Z,99122.31
2018-03-24T01:35:45.086Z,99120.78
2018-03-24T01:36:50.912Z,99116.33
2018-03-24T01:37:57.483Z,99126.92
2018-03-24T01:39:03.069Z,99120.56
2018-03-24T01:40:08.781Z,99122.25
2018-03-24T01:41:14.488Z,99117.97
2018-03-24T01:42:20.227Z,99116.76
2018-03-24T01:43:26.704Z,99123.28
2018-03-24T01:44:32.229Z,99124.09
2018-03-24T01:45:37.948Z,99120.89
2018-03-24T01:46:43.697Z,99123.03
2018-03-24T01:47:50.196Z,99118.47
2018-03-24T01:48:55.900Z,99111.94
2018-03-24T01:50:02.383Z,99111.30
2018-03-24T01:51:08.108Z,99108.16
2018-03-24T01:52:13.819Z,99113.12
2018-03-24T01:53:19.460Z,99109.66
2018-03-24T01:54:25.177Z,99109.72
2018-03-24T01:55:30.889Z,99107.93
2018-03-24T01:56:36.617Z,99108.55
2018-03-24T01:57:42.322Z,99111.11
2018-03-24T01:58:48.053Z,99107.28
2018-03-24T01:59:53.760Z,99105.20
2018-03-24T02:00:59.460Z,99104.42
2018-03-24T02:02:05.994Z,99108.50
2018-03-24T02:03:13.208Z,99105.58
2018-03-24T02:04:18.956Z,99104.80
2018-03-24T02:05:24.684Z,99107.00
2018-03-24T02:06:31.301Z,99103.50
2018-03-24T02:07:37.014Z,99103.33
2018-03-24T02:08:42.527Z,99098.16
2018-03-24T02:09:49.029Z,99100.21
2018-03-24T02:10:54.737Z,99100.37
2018-03-24T02:12:00.465Z,99108.38
2018-03-24T02:13:06.935Z,99110.50
2018-03-24T02:14:12.676Z,99113.28
2018-03-24T02:15:18.406Z,99112.98
2018-03-24T02:16:24.897Z,99113.34
2018-03-24T02:17:30.621Z,99111.23
2018-03-24T02:18:36.329Z,99115.18
2018-03-24T02:19:42.279Z,99116.03
2018-03-24T02:20:50.548Z,99111.23
2018-03-24T02:21:56.142Z,99109.99
2018-03-24T02:23:01.861Z,99106.73
2018-03-24T02:24:07.996Z,99103.72
2018-03-24T02:25:14.446Z,99106.73
2018-03-24T02:26:19.976Z,99104.98
2018-03-24T02:27:25.679Z,99105.44
2018-03-24T02:28:31.450Z,99107.43
2018-03-24T02:29:37.185Z,99102.78
2018-03-24T02:30:42.688Z,99097.62
2018-03-24T02:31:48.415Z,99104.95
2018-03-24T02:32:54.894Z,99105.95
2018-03-24T02:34:00.625Z,99096.72
2018-03-24T02:35:06.329Z,99104.80
2018-03-24T02:36:12.830Z,99105.50
2018-03-24T02:37:18.570Z,99106.50
2018-03-24T02:38:24.317Z,99103.92
2018-03-24T02:39:30.022Z,99098.71
2018-03-24T02:40:36.550Z,99097.05
2018-03-24T02:41:42.456Z,99100.09
2018-03-24T02:42:48.183Z,99106.95
2018-03-24T02:43:54.652Z,99097.53
2018-03-24T02:45:00.397Z,99101.06
2018-03-24T02:46:06.158Z,99098.41
2018-03-24T02:47:11.873Z,99095.42
2018-03-24T02:48:17.610Z,99091.89
2018-03-24T02:49:23.326Z,99094.03
2018-03-24T02:50:29.825Z,99090.41
2018-03-24T02:51:35.532Z,99094.00
2018-03-24T02:52:42.020Z,99086.45
2018-03-24T02:53:47.786Z,99081.89
2018-03-24T02:54:53.487Z,99086.12
2018-03-24T02:55:58.961Z,99087.71
2018-03-24T02:57:04.668Z,99083.25
2018-03-24T02:58:10.380Z,99083.09
2018-03-24T02:59:16.884Z,99085.10
2018-03-24T03:00:22.595Z,99088.06
2018-03-24T03:01:29.113Z,99089.30
2018-03-24T03:02:34.817Z,99087.36
2018-03-24T03:03:40.535Z,99081.10
2018-03-24T03:04:46.785Z,99079.13
2018-03-24T03:05:53.026Z,99085.32
2018-03-24T03:06:59.550Z,99086.10
2018-03-24T03:08:05.250Z,99081.75
2018-03-24T03:09:10.963Z,99086.30
2018-03-24T03:10:16.692Z,99084.97
2018-03-24T03:11:22.402Z,99081.02
2018-03-24T03:12:28.102Z,99086.80
2018-03-24T03:13:33.800Z,99090.53
2018-03-24T03:14:39.765Z,99083.00
2018-03-24T03:15:45.512Z,99079.95
2018-03-24T03:16:51.240Z,99086.58
2018-03-24T03:17:56.952Z,99083.20
2018-03-24T03:19:02.649Z,99087.84
2018-03-24T03:20:08.939Z,99085.24
2018-03-24T03:21:14.666Z,99080.59
2018-03-24T03:22:20.197Z,99085.83
2018-03-24T03:23:25.914Z,99084.11
2018-03-24T03:24:32.428Z,99079.33
2018-03-24T03:25:38.132Z,99080.03
2018-03-24T03:26:43.879Z,99076.08
2018-03-24T03:27:49.640Z,99080.19
2018-03-24T03:28:55.518Z,99073.98
2018-03-24T03:30:01.043Z,99076.38
2018-03-24T03:31:27.319Z,99074.42
2018-03-24T03:32:32.861Z,99084.84
2018-03-24T03:33:38.586Z,99072.91
2018-03-24T03:34:45.064Z,99077.25
2018-03-24T03:35:50.768Z,99079.58
2018-03-24T03:36:57.250Z,99078.70
2018-03-24T03:38:02.986Z,99079.88
2018-03-24T03:39:09.465Z,99076.22
2018-03-24T03:40:15.196Z,99075.22
2018-03-24T03:41:20.915Z,99075.12
2018-03-24T03:42:26.631Z,99071.95
2018-03-24T03:43:32.364Z,99073.80
2018-03-24T03:44:38.073Z,99074.73
2018-03-24T03:45:43.802Z,99071.39
2018-03-24T03:46:49.518Z,99069.73
2018-03-24T03:47:56.010Z,99076.08
2018-03-24T03:49:01.839Z,99074.48
2018-03-24T03:50:07.580Z,99074.09
2018-03-24T03:51:13.291Z,99071.16
2018-03-24T03:52:18.993Z,99075.78
2018-03-24T03:53:24.708Z,99075.19
2018-03-24T03:54:30.436Z,99082.42
2018-03-24T03:55:36.136Z,99076.91
2018-03-24T03:56:41.851Z,99073.52
2018-03-24T03:57:47.565Z,99075.33
2018-03-24T03:58:53.305Z,99076.53
2018-03-24T03:59:59.044Z,99079.67
2018-03-24T04:01:04.764Z,99077.08
2018-03-24T04:02:11.250Z,99074.97
2018-03-24T04:03:16.955Z,99075.33
2018-03-24T04:04:23.432Z,99071.83
2018-03-24T04:05:29.923Z,99069.60
2018-03-24T04:06:35.653Z,99070.27
2018-03-24T04:07:41.363Z,99070.14
2018-03-24T04:08:47.837Z,99070.98
2018-03-24T04:09:53.545Z,99069.81
2018-03-24T04:10:59.283Z,99068.55
2018-03-24T04:12:05.063Z,99073.04
2018-03-24T04:13:10.785Z,99069.66
2018-03-24T04:14:17.264Z,99066.43
2018-03-24T04:15:22.997Z,99069.17
2018-03-24T04:16:29.489Z,99069.89
2018-03-24T04:17:35.198Z,99072.63
2018-03-24T04:18:40.902Z,99068.34
2018-03-24T04:19:46.424Z,99072.99
2018-03-24T04:20:52.264Z,99071.70
2018-03-24T04:21:57.991Z,99070.34
2018-03-24T04:23:03.706Z,99069.08
2018-03-24T04:24:09.413Z,99073.98
2018-03-24T04:25:15.886Z,99074.19
2018-03-24T04:26:22.369Z,99067.34
2018-03-24T04:27:28.145Z,99074.22
2018-03-24T04:28:33.855Z,99075.15
2018-03-24T04:29:39.560Z,99075.99
2018-03-24T04:30:46.040Z,99078.67
2018-03-24T04:31:51.752Z,99078.61
2018-03-24T04:32:57.487Z,99075.15
2018-03-24T04:34:03.198Z,99075.15
2018-03-24T04:35:08.897Z,99075.69
2018-03-24T04:36:15.362Z,99079.88
2018-03-24T04:37:21.069Z,99080.39
2018-03-24T04:38:26.795Z,99082.89
2018-03-24T04:39:32.538Z,99078.55
2018-03-24T04:40:38.236Z,99084.86
2018-03-24T04:41:44.032Z,99081.34
2018-03-24T04:42:50.493Z,99083.70
2018-03-24T04:43:57.729Z,99084.37
2018-03-24T04:45:03.520Z,99083.73
2018-03-24T04:46:09.377Z,99082.69
2018-03-24T04:47:15.848Z,99089.08
2018-03-24T04:48:21.562Z,99088.57
2018-03-24T04:49:28.088Z,99086.37
2018-03-24T04:50:35.989Z,99088.27
2018-03-24T04:51:41.692Z,99088.27
2018-03-24T04:52:47.519Z,99091.91
2018-03-24T04:53:53.989Z,99086.27
2018-03-24T04:54:59.805Z,99088.84
2018-03-24T04:56:05.537Z,99088.72
2018-03-24T04:57:12.001Z,99089.45
2018-03-24T04:58:18.471Z,99092.85
2018-03-24T04:59:24.178Z,99094.69
2018-03-24T05:00:29.901Z,99090.68
2018-03-24T05:01:35.592Z,99091.89
2018-03-24T05:02:41.302Z,99097.11
2018-03-24T05:03:48.511Z,99089.35
2018-03-24T05:04:54.430Z,99093.61
2018-03-24T05:06:00.925Z,99094.33
2018-03-24T05:07:06.626Z,99089.03
2018-03-24T05:08:13.112Z,99094.55
2018-03-24T05:09:18.858Z,99093.77
2018-03-24T05:10:24.568Z,99098.13
2018-03-24T05:11:30.313Z,99096.02
2018-03-24T05:12:36.014Z,99100.70
2018-03-24T05:13:41.778Z,99095.55
2018-03-24T05:14:47.479Z,99100.25
2018-03-24T05:15:53.187Z,99097.33
2018-03-24T05:16:59.496Z,99096.20
2018-03-24T05:18:05.221Z,99098.34
2018-03-24T05:19:10.949Z,99096.81
2018-03-24T05:20:16.652Z,99095.81
2018-03-24T05:21:23.132Z,99093.19
2018-03-24T05:22:29.616Z,99096.54
2018-03-24T05:23:35.334Z,99099.47
2018-03-24T05:24:41.048Z,99096.00
2018-03-24T05:25:46.809Z,99094.19
2018-03-24T05:26:53.288Z,99096.63
2018-03-24T05:27:59.036Z,99101.81
2018-03-24T05:29:04.740Z,99099.04
2018-03-24T05:30:11.209Z,99093.80
2018-03-24T05:31:16.907Z,99099.98
2018-03-24T05:32:22.633Z,99095.90
2018-03-24T05:33:28.378Z,99088.29
2018-03-24T05:34:34.086Z,99090.97
2018-03-24T05:35:39.785Z,99089.97
2018-03-24T05:36:45.485Z,99089.20
2018-03-24T05:37:51.213Z,99088.53
2018-03-24T05:38:57.008Z,99093.86
2018-03-24T05:40:02.720Z,99087.57
2018-03-24T05:41:08.438Z,99090.56
2018-03-24T05:42:14.148Z,99087.93
2018-03-24T05:43:20.625Z,99087.57
2018-03-24T05:44:26.359Z,99096.11
2018-03-24T05:45:32.073Z,99087.97
2018-03-24T05:46:38.562Z,99095.73
2018-03-24T05:47:44.285Z,99094.04
2018-03-24T05:48:50.783Z,99095.30
2018-03-24T05:49:56.539Z,99093.55
2018-03-24T05:51:02.240Z,99097.81
2018-03-24T05:52:07.949Z,99094.79
2018-03-24T05:53:13.649Z,99094.33
2018-03-24T05:54:19.352Z,99089.79
2018-03-24T05:55:25.085Z,99089.14
2018-03-24T05:56:31.548Z,99091.58
2018-03-24T05:57:38.024Z,99088.95
2018-03-24T05:58:43.737Z,99098.50
2018-03-24T05:59:50.026Z,99091.55
2018-03-24T06:00:55.761Z,99099.14
2018-03-24T06:02:01.462Z,99096.64
2018-03-24T06:03:07.175Z,99101.35
2018-03-24T06:04:12.893Z,99102.16
2018-03-24T06:05:18.597Z,99104.72
2018-03-24T06:06:25.088Z,99096.56
2018-03-24T06:07:30.793Z,99103.11
2018-03-24T06:08:37.265Z,99109.68
2018-03-24T06:09:43.009Z,99107.40
2018-03-24T06:10:48.721Z,99111.25
2018-03-24T06:11:54.454Z,99109.58
2018-03-24T06:13:00.203Z,99114.51
2018-03-24T06:14:05.572Z,99110.61
2018-03-24T06:15:11.288Z,99108.78
2018-03-24T06:16:17.836Z,99113.61
2018-03-24T06:17:24.369Z,99107.53
2018-03-24T06:18:30.077Z,99112.35
2018-03-24T06:19:35.793Z,99116.22
2018-03-24T06:20:42.265Z,99113.87
2018-03-24T06:21:47.976Z,99113.94
2018-03-24T06:22:53.734Z,99109.23
2018-03-24T06:24:00.214Z,99110.28
2018-03-24T06:25:05.931Z,99109.16
2018-03-24T06:26:12.536Z,99109.66
2018-03-24T06:27:18.264Z,99118.17
2018-03-24T06:28:24.017Z,99115.95
2018-03-24T06:29:29.835Z,99119.08
2018-03-24T06:30:35.348Z,99118.80
2018-03-24T06:31:44.998Z,99118.94
2018-03-24T06:32:50.566Z,99115.11
2018-03-24T06:33:56.303Z,99118.31
2018-03-24T06:35:01.833Z,99114.62
2018-03-24T06:36:19.104Z,99120.21
2018-03-24T06:37:25.617Z,99116.87
2018-03-24T06:38:31.333Z,99117.99
2018-03-24T06:39:37.064Z,99119.08
2018-03-24T06:40:42.775Z,99120.12
2018-03-24T06:41:49.489Z,99120.47
2018-03-24T06:42:55.195Z,99114.36
2018-03-24T06:44:01.674Z,99116.87
2018-03-24T06:45:07.389Z,99116.02
2018-03-24T06:46:13.941Z,99121.04
2018-03-24T06:47:19.648Z,99115.81
2018-03-24T06:48:25.456Z,99121.32
2018-03-24T06:49:31.925Z,99118.22
2018-03-24T06:50:37.659Z,99122.63
2018-03-24T06:51:43.359Z,99119.47
2018-03-24T06:52:49.091Z,99116.95
2018-03-24T06:53:54.832Z,99117.83
2018-03-24T06:55:00.543Z,99124.01
2018-03-24T06:56:05.938Z,99122.48
2018-03-24T06:57:12.412Z,99123.02
2018-03-24T06:58:18.156Z,99121.44
2018-03-24T06:59:23.870Z,99120.38
2018-03-24T07:00:30.041Z,99126.63
2018-03-24T07:01:35.768Z,99130.70
2018-03-24T07:02:42.334Z,99126.54
2018-03-24T07:03:48.904Z,99125.42
2018-03-24T07:04:55.363Z,99124.28
2018-03-24T07:06:00.894Z,99122.59
2018-03-24T07:07:07.402Z,99122.13
2018-03-24T07:08:13.128Z,99128.19
2018-03-24T07:09:19.057Z,99123.86
2018-03-24T07:10:24.777Z,99125.03
2018-03-24T07:11:31.252Z,99134.53
2018-03-24T07:12:37.088Z,99123.56
2018-03-24T07:13:42.796Z,99127.92
2018-03-24T07:14:49.276Z,99126.23
2018-03-24T07:15:55.015Z,99133.52
2018-03-24T07:17:01.484Z,99135.91
2018-03-24T07:18:07.216Z,99133.58
2018-03-24T07:19:12.961Z,99139.27
2018-03-24T07:20:18.702Z,99140.56
2018-03-24T07:21:24.421Z,99143.64
2018-03-24T07:22:30.908Z,99144.52
2018-03-24T07:23:36.640Z,99147.97
2018-03-24T07:24:43.110Z,99145.31
2018-03-24T07:25:49.021Z,99151.09
2018-03-24T07:26:54.823Z,99152.45
2018-03-24T07:28:00.533Z,99151.67
2018-03-24T07:29:06.265Z,99159.18
2018-03-24T07:30:11.677Z,99147.92
2018-03-24T07:31:18.162Z,99155.02
2018-03-24T07:32:23.899Z,99153.03
2018-03-24T07:33:30.422Z,99154.87
2018-03-24T07:34:36.180Z,99156.03
2018-03-24T07:35:42.864Z,99157.04
2018-03-24T07:36:48.716Z,99156.22
2018-03-24T07:37:54.565Z,99157.93
2018-03-24T07:39:01.392Z,99151.73
2018-03-24T07:40:07.985Z,99159.28
2018-03-24T07:41:13.804Z,99155.31
2018-03-24T07:42:20.364Z,99159.05
2018-03-24T07:43:27.157Z,99158.54
2018-03-24T07:44:32.918Z,99161.47
2018-03-24T07:45:38.672Z,99157.05
2018-03-24T07:46:44.218Z,99161.28
2018-03-24T07:47:50.009Z,99159.35
2018-03-24T07:48:56.732Z,99159.14
2018-03-24T07:50:03.344Z,99160.75
2018-03-24T07:51:09.369Z,99158.18
2018-03-24T07:52:15.877Z,99158.72
2018-03-24T07:53:21.593Z,99155.88
2018-03-24T07:54:27.317Z,99158.95
2018-03-24T07:55:33.812Z,99158.80
2018-03-24T07:56:39.548Z,99155.43
2018-03-24T07:57:45.276Z,99163.73
2018-03-24T07:58:51.022Z,99162.09
2018-03-24T07:59:56.738Z,99161.48
2018-03-24T08:01:03.038Z,99164.63
2018-03-24T08:02:08.803Z,99167.98
2018-03-24T08:03:14.526Z,99169.72
2018-03-24T08:04:20.334Z,99167.66
2018-03-24T08:05:26.055Z,99169.98
2018-03-24T08:06:32.541Z,99169.08
2018-03-24T08:07:38.276Z,99167.14
2018-03-24T08:08:44.005Z,99167.51
2018-03-24T08:09:50.557Z,99164.97
2018-03-24T08:10:57.042Z,99162.76
2018-03-24T08:12:04.030Z,99171.49
2018-03-24T08:13:09.825Z,99171.90
2018-03-24T08:14:16.478Z,99172.66
2018-03-24T08:15:22.965Z,99178.26
2018-03-24T08:16:28.723Z,99174.36
2018-03-24T08:17:34.429Z,99173.17
2018-03-24T08:18:40.937Z,99175.50
2018-03-24T08:19:46.649Z,99175.84
2018-03-24T08:20:52.365Z,99175.53
2018-03-24T08:21:58.853Z,99177.52
2018-03-24T08:23:04.521Z,99172.23
2018-03-24T08:24:10.311Z,99172.90
2018-03-24T08:25:16.846Z,99171.50
2018-03-24T08:26:22.568Z,99175.70
2018-03-24T08:27:28.304Z,99175.59
2018-03-24T08:28:34.034Z,99182.33
2018-03-24T08:29:39.789Z,99178.44
2018-03-24T08:30:45.516Z,99180.81
2018-03-24T08:31:50.968Z,99173.59
2018-03-24T08:32:56.682Z,99177.69
2018-03-24T08:34:02.401Z,99177.16
2018-03-24T08:35:07.816Z,99167.78
2018-03-24T08:36:14.321Z,99176.88
2018-03-24T08:37:20.045Z,99177.78
2018-03-24T08:38:27.045Z,99176.41
2018-03-24T08:39:33.669Z,99176.36
2018-03-24T08:40:39.417Z,99175.98
2018-03-24T08:41:45.133Z,99180.52
2018-03-24T08:42:51.657Z,99181.37
2018-03-24T08:43:57.373Z,99182.58
2018-03-24T08:45:02.857Z,99179.36
2018-03-24T08:46:08.885Z,99183.84
2018-03-24T08:47:14.613Z,99184.59
2018-03-24T08:48:20.436Z,99176.98
2018-03-24T08:49:26.220Z,99183.79
2018-03-24T08:50:31.976Z,99183.73
2018-03-24T08:51:38.498Z,99178.87
2018-03-24T08:52:44.212Z,99182.92
2018-03-24T08:53:49.966Z,99173.86
2018-03-24T08:54:55.699Z,99181.04
2018-03-24T08:56:01.428Z,99175.56
2018-03-24T08:57:07.177Z,99174.75
2018-03-24T08:58:12.903Z,99172.22
2018-03-24T08:59:18.630Z,99180.63
2018-03-24T09:00:25.118Z,99178.81
2018-03-24T09:01:30.851Z,99176.76
2018-03-24T09:02:36.597Z,99179.36
2018-03-24T09:03:42.313Z,99176.43
2018-03-24T09:04:48.807Z,99180.88
2018-03-24T09:05:54.539Z,99174.55
2018-03-24T09:07:00.318Z,99171.42
2018-03-24T09:08:05.830Z,99178.44
2018-03-24T09:09:12.341Z,99181.03
2018-03-24T09:10:18.832Z,99171.37
2018-03-24T09:11:24.562Z,99170.05
2018-03-24T09:12:31.057Z,99177.36
2018-03-24T09:13:36.812Z,99171.66
2018-03-24T09:14:42.571Z,99177.42
2018-03-24T09:15:48.360Z,99176.94
2018-03-24T09:16:54.076Z,99178.91
2018-03-24T09:18:00.163Z,99179.17
2018-03-24T09:19:05.909Z,99169.52
2018-03-24T09:20:11.631Z,99173.92
2018-03-24T09:21:17.420Z,99166.31
2018-03-24T09:22:23.136Z,99172.55
2018-03-24T09:23:28.875Z,99173.70
2018-03-24T09:24:34.678Z,99172.80
2018-03-24T09:25:41.173Z,99169.77
2018-03-24T09:26:46.928Z,99166.56
2018-03-24T09:27:52.648Z,99166.56
2018-03-24T09:28:58.367Z,99171.33
2018-03-24T09:30:04.125Z,99165.06
2018-03-24T09:31:10.655Z,99166.62
2018-03-24T09:32:17.164Z,99168.88
2018-03-24T09:33:22.899Z,99169.75
2018-03-24T09:34:28.640Z,99167.27
2018-03-24T09:35:34.389Z,99169.12
2018-03-24T09:36:40.111Z,99166.52
2018-03-24T09:37:45.829Z,99165.44
2018-03-24T09:38:51.549Z,99162.47
2018-03-24T09:39:57.277Z,99167.95
2018-03-24T09:41:02.685Z,99166.20
2018-03-24T09:42:08.418Z,99161.37
2018-03-24T09:43:14.133Z,99165.36
2018-03-24T09:44:19.856Z,99163.41
2018-03-24T09:45:26.637Z,99164.25
2018-03-24T09:46:32.365Z,99162.16
2018-03-24T09:47:38.857Z,99158.66
2018-03-24T09:48:44.564Z,99165.77
2018-03-24T09:49:51.041Z,99160.11
2018-03-24T09:50:56.754Z,99156.11
2018-03-24T09:52:03.265Z,99163.06
2018-03-24T09:53:08.980Z,99162.45
2018-03-24T09:54:14.701Z,99166.61
2018-03-24T09:55:21.194Z,99166.34
2018-03-24T09:56:26.904Z,99167.59
2018-03-24T09:57:32.649Z,99162.28
2018-03-24T09:58:39.123Z,99165.70
2018-03-24T09:59:44.856Z,99168.59
2018-03-24T10:00:50.576Z,99167.36
2018-03-24T10:01:57.061Z,99171.79
2018-03-24T10:03:02.798Z,99169.22
2018-03-24T10:04:08.545Z,99165.20
2018-03-24T10:05:14.313Z,99162.72
2018-03-24T10:06:20.222Z,99167.73
2018-03-24T10:07:25.745Z,99171.17
2018-03-24T10:08:31.819Z,99170.82
2018-03-24T10:09:37.353Z,99164.28
2018-03-24T10:10:43.395Z,99168.11
2018-03-24T10:11:49.114Z,99165.62
2018-03-24T10:12:55.400Z,99166.44
2018-03-24T10:14:01.149Z,99162.20
2018-03-24T10:15:06.880Z,99161.82
2018-03-24T10:16:12.604Z,99163.13
2018-03-24T10:17:18.318Z,99162.60
2018-03-24T10:18:24.028Z,99164.84
2018-03-24T10:19:29.761Z,99161.77
2018-03-24T10:23:08.780Z,99168.68
2018-03-24T10:24:27.723Z,99168.72
2018-03-24T10:25:33.473Z,99168.56
2018-03-24T10:26:39.200Z,99162.86
2018-03-24T10:27:45.247Z,99168.64
2018-03-24T10:28:50.892Z,99162.86
2018-03-24T10:29:56.808Z,99166.12
2018-03-24T10:31:03.137Z,99166.77
2018-03-24T10:32:08.870Z,99167.47
2018-03-24T10:33:14.589Z,99168.76
2018-03-24T10:34:20.617Z,99162.80
2018-03-24T10:35:26.785Z,99163.01
2018-03-24T10:36:32.729Z,99161.02
2018-03-24T10:37:43.914Z,99170.04
2018-03-24T10:38:49.632Z,99168.91
2018-03-24T10:39:55.395Z,99170.73
2018-03-24T10:41:06.153Z,99163.88
2018-03-24T10:42:11.913Z,99167.63
2018-03-24T10:43:23.077Z,99166.20
2018-03-24T10:44:28.796Z,99166.16
2018-03-24T10:45:34.512Z,99167.33
2018-03-24T10:46:40.247Z,99160.57
2018-03-24T10:47:46.003Z,99165.84
2018-03-24T10:48:51.748Z,99163.48
2018-03-24T10:49:57.488Z,99158.09
2018-03-24T10:51:03.204Z,99155.64
2018-03-24T10:52:08.961Z,99155.22
2018-03-24T10:53:14.709Z,99164.11
2018-03-24T10:54:20.492Z,99161.52
2018-03-24T10:55:27.021Z,99162.48
2018-03-24T10:56:33.707Z,99163.97
2018-03-24T10:57:39.460Z,99161.88
2018-03-24T10:58:45.206Z,99163.80
2018-03-24T10:59:52.198Z,99163.27
2018-03-24T11:01:04.180Z,99164.98
2018-03-24T11:02:10.983Z,99164.02
2018-03-24T11:03:16.735Z,99166.14
2018-03-24T11:04:22.517Z,99159.65
2018-03-24T11:05:29.602Z,99162.78
2018-03-24T11:06:36.122Z,99164.30
2018-03-24T11:07:42.334Z,99157.52
2018-03-24T11:08:49.605Z,99158.16
2018-03-24T11:09:55.441Z,99161.52
2018-03-24T11:11:01.992Z,99162.89
2018-03-24T11:12:08.482Z,99162.92
2018-03-24T11:13:14.214Z,99161.98
2018-03-24T11:14:21.018Z,99164.79
2018-03-24T11:15:26.753Z,99163.36
2018-03-24T11:16:32.488Z,99164.13
2018-03-24T11:17:38.217Z,99167.45
2018-03-24T11:18:43.941Z,99165.25
2018-03-24T11:19:50.454Z,99158.34
2018-03-24T11:20:56.392Z,99159.05
2018-03-24T11:22:02.203Z,99167.24
2018-03-24T11:23:07.999Z,99167.86
2018-03-24T11:24:13.796Z,99165.23
2018-03-24T11:25:19.501Z,99160.69
2018-03-24T11:26:26.032Z,99167.38
2018-03-24T11:27:31.743Z,99159.47
2018-03-24T11:28:37.314Z,99161.63
2018-03-24T11:29:43.067Z,99163.62
2018-03-24T11:30:48.957Z,99161.63
2018-03-24T11:31:54.838Z,99153.98
2018-03-24T11:33:00.581Z,99157.09
2018-03-24T11:34:05.970Z,99154.47
2018-03-24T11:35:13.276Z,99159.73
2018-03-24T11:36:19.189Z,99164.08
2018-03-24T11:37:25.081Z,99158.96
2018-03-24T11:38:30.819Z,99157.76
2018-03-24T11:39:36.613Z,99159.12
2018-03-24T11:40:42.506Z,99156.80
2018-03-24T11:41:49.129Z,99159.56
2018-03-24T11:42:54.949Z,99160.16
2018-03-24T11:44:01.420Z,99165.52
2018-03-24T11:45:07.130Z,99166.34
2018-03-24T11:46:12.839Z,99165.58
2018-03-24T11:47:18.557Z,99168.73
2018-03-24T11:48:25.096Z,99168.69
2018-03-24T11:49:30.926Z,99167.00
2018-03-24T11:50:37.404Z,99170.36
2018-03-24T11:51:43.453Z,99163.80
2018-03-24T11:52:49.204Z,99161.45
2018-03-24T11:53:54.935Z,99165.45
2018-03-24T11:55:00.695Z,99159.66
2018-03-24T11:56:06.415Z,99161.50
2018-03-24T11:57:12.161Z,99160.61
2018-03-24T11:58:17.877Z,99163.61
2018-03-24T11:59:23.622Z,99167.14
2018-03-24T12:00:30.002Z,99161.89
2018-03-24T12:01:35.840Z,99165.95
2018-03-24T12:02:41.769Z,99164.86
2018-03-24T12:03:48.311Z,99161.28
2018-03-24T12:04:54.154Z,99164.92
2018-03-24T12:05:59.985Z,99160.55
2018-03-24T12:07:05.692Z,99150.78
2018-03-24T12:08:11.434Z,99156.73
2018-03-24T12:09:17.138Z,99145.72
2018-03-24T12:10:23.674Z,99151.50
2018-03-24T12:11:29.375Z,99152.12
2018-03-24T12:12:35.082Z,99149.33
2018-03-24T12:13:41.565Z,99148.60
2018-03-24T12:14:47.256Z,99147.23
2018-03-24T12:15:53.041Z,99147.36
2018-03-24T12:16:58.465Z,99149.61
2018-03-24T12:18:04.177Z,99143.45
2018-03-24T12:19:09.912Z,99142.67
2018-03-24T12:20:15.616Z,99151.43
2018-03-24T12:21:21.358Z,99151.12
2018-03-24T12:22:27.092Z,99150.17
2018-03-24T12:23:32.820Z,99149.45
2018-03-24T12:24:38.531Z,99145.44
2018-03-24T12:25:44.303Z,99142.94
2018-03-24T12:26:50.033Z,99139.72
2018-03-24T12:27:55.753Z,99138.08
2018-03-24T12:29:02.288Z,99141.67
2018-03-24T12:30:08.583Z,99141.80
2018-03-24T12:31:15.154Z,99146.07
2018-03-24T12:32:21.047Z,99140.11
2018-03-24T12:33:26.760Z,99141.41
2018-03-24T12:34:32.680Z,99140.69
2018-03-24T12:35:38.407Z,99140.01
2018-03-24T12:36:44.732Z,99138.58
2018-03-24T12:37:50.487Z,99140.84
2018-03-24T12:38:56.672Z,99137.84
2018-03-24T12:40:02.491Z,99137.22
2018-03-24T12:41:08.515Z,99135.25
2018-03-24T12:42:14.331Z,99140.47
2018-03-24T12:43:20.318Z,99136.88
2018-03-24T12:44:26.275Z,99137.77
2018-03-24T12:45:32.017Z,99136.98
2018-03-24T12:46:38.492Z,99134.80
2018-03-24T12:47:44.234Z,99139.17
2018-03-24T12:48:50.752Z,99144.98
2018-03-24T12:49:56.473Z,99143.06
2018-03-24T12:51:02.186Z,99139.73
2018-03-24T12:52:07.915Z,99148.75
2018-03-24T12:53:14.378Z,99138.77
2018-03-24T12:54:20.120Z,99146.72
2018-03-24T12:55:25.842Z,99140.56
2018-03-24T12:56:32.361Z,99134.38
2018-03-24T12:57:38.114Z,99139.55